Time;durP1;ratioP1;P1;durP2;ratioP2;P2;SDS_P1;SDS_P2;PMS_P1;PMS_P2;Temp;Humidity;BMP_temperature;BMP_pressure;BME280_temperature;BME280_humidity;BME280_pressure;Samples;Min_cycle;Max_cycle;Signal;HPM_P1;HPM_P2
2023/03/05 05:02:39;;;;;;;0.10;0.10;;;2.70;99.90;;;;;;4923425;29;20713;-69
2023/03/05 05:05:06;;;;;;;6.05;1.00;;;2.70;99.90;;;;;;4929970;29;20206;-70
2023/03/05 05:07:33;;;;;;;1.08;0.95;;;2.70;99.90;;;;;;4937657;29;20213;-69
2023/03/05 05:10:00;;;;;;;0.85;0.60;;;2.70;99.90;;;;;;4939427;28;20216;-68
2023/03/05 05:12:28;;;;;;;0.20;0.20;;;2.70;99.90;;;;;;4927557;29;20718;-68
2023/03/05 05:14:55;;;;;;;0.20;0.20;;;2.60;99.90;;;;;;4933037;23;20239;-68
2023/03/05 05:17:22;;;;;;;1.08;1.08;;;2.70;99.90;;;;;;4935060;29;20225;-69
2023/03/05 05:19:50;;;;;;;0.85;0.80;;;2.70;99.90;;;;;;4935148;29;20216;-68
2023/03/05 05:22:17;;;;;;;1.95;1.38;;;2.70;99.90;;;;;;4935157;29;20306;-69
2023/03/05 05:24:44;;;;;;;0.20;0.20;;;2.70;99.90;;;;;;4935816;29;20309;-69
2023/03/05 05:27:10;;;;;;;0.17;0.17;;;2.70;99.90;;;;;;4918498;29;20207;-68
2023/03/05 05:29:38;;;;;;;0.38;0.38;;;2.70;99.90;;;;;;4919142;29;20214;-69
2023/03/05 05:32:05;;;;;;;0.30;0.30;;;2.70;99.90;;;;;;4918394;29;20210;-68
2023/03/05 05:34:32;;;;;;;0.30;0.30;;;2.70;99.90;;;;;;4919148;29;20222;-70
2023/03/05 05:37:00;;;;;;;0.60;0.30;;;2.70;99.90;;;;;;4919355;29;20234;-69
2023/03/05 05:39:27;;;;;;;1.85;1.85;;;2.70;99.90;;;;;;4917792;29;20202;-68
2023/03/05 05:41:54;;;;;;;0.65;0.35;;;2.70;99.90;;;;;;4917965;29;20213;-69
2023/03/05 05:44:21;;;;;;;0.73;0.32;;;2.80;99.90;;;;;;4922268;29;20678;-69
2023/03/05 05:46:47;;;;;;;0.68;0.68;;;2.80;99.90;;;;;;4921883;29;20237;-68
2023/03/05 05:49:14;;;;;;;0.47;0.47;;;2.80;99.90;;;;;;4917324;29;20210;-68
2023/03/05 05:51:41;;;;;;;0.10;0.10;;;2.80;99.90;;;;;;4925298;29;20206;-69
2023/03/05 05:54:12;;;;;;;0.30;0.30;;;2.80;99.90;;;;;;4922793;29;20215;-69
2023/03/05 05:56:39;;;;;;;0.30;0.30;;;2.80;99.90;;;;;;4923673;29;20239;-69
2023/03/05 05:59:06;;;;;;;0.43;0.43;;;2.80;99.90;;;;;;4924794;29;20213;-68
2023/03/05 06:01:33;;;;;;;0.20;0.20;;;2.80;99.90;;;;;;4927938;29;20225;-70
2023/03/05 06:04:01;;;;;;;0.65;0.38;;;2.80;99.90;;;;;;4921755;29;20555;-69
2023/03/05 06:06:28;;;;;;;0.45;0.45;;;2.80;99.90;;;;;;4925033;29;20226;-70
2023/03/05 06:08:56;;;;;;;0.93;0.93;;;2.80;99.90;;;;;;4921131;29;20332;-70
2023/03/05 06:11:25;;;;;;;0.30;0.30;;;2.80;99.90;;;;;;4915024;29;20210;-70
2023/03/05 06:13:51;;;;;;;0.20;0.20;;;2.80;99.90;;;;;;4925785;29;20206;-70
2023/03/05 06:16:20;;;;;;;0.85;0.38;;;2.80;99.90;;;;;;4927407;29;20246;-69
2023/03/05 06:18:47;;;;;;;0.20;0.20;;;2.80;99.90;;;;;;4920301;29;20221;-70
2023/03/05 06:21:28;;;;;;;0.60;0.60;;;2.80;99.90;;;;;;4926494;29;20207;-69
2023/03/05 06:23:57;;;;;;;2.08;1.10;;;2.80;99.90;;;;;;4919683;29;20582;-69
2023/03/05 06:26:25;;;;;;;0.38;0.38;;;2.80;99.90;;;;;;4909413;29;20294;-68
2023/03/05 06:28:52;;;;;;;0.60;0.60;;;2.80;99.90;;;;;;4921888;29;20219;-69
2023/03/05 06:31:21;;;;;;;0.55;0.55;;;2.80;99.90;;;;;;4923236;29;20221;-69
2023/03/05 06:33:48;;;;;;;0.20;0.20;;;2.80;99.90;;;;;;4913809;29;20245;-70
2023/03/05 06:36:17;;;;;;;0.10;0.10;;;2.80;99.90;;;;;;4908402;29;20234;-69
2023/03/05 06:38:44;;;;;;;0.52;0.52;;;2.80;99.90;;;;;;4919724;29;20591;-70
2023/03/05 06:41:13;;;;;;;1.10;0.57;;;2.90;99.90;;;;;;4911870;29;20239;-69
2023/03/05 06:43:43;;;;;;;1.20;1.05;;;2.90;99.90;;;;;;4918646;29;20218;-70
2023/03/05 06:46:12;;;;;;;0.10;0.10;;;2.90;99.90;;;;;;4920402;29;20230;-70
2023/03/05 06:48:39;;;;;;;1.00;0.88;;;2.90;99.90;;;;;;4916471;29;20210;-69
2023/03/05 06:51:13;;;;;;;1.40;1.40;;;2.90;99.90;;;;;;4923422;29;20214;-70
2023/03/05 06:53:40;;;;;;;0.25;0.25;;;2.90;99.90;;;;;;4918682;29;20210;-70
2023/03/05 06:56:07;;;;;;;0.45;0.45;;;2.90;99.90;;;;;;4926602;29;20249;-68
2023/03/05 06:58:34;;;;;;;0.47;0.47;;;2.90;99.90;;;;;;4928318;29;20230;-70
2023/03/05 07:01:04;;;;;;;1.95;1.20;;;3.00;99.90;;;;;;4926099;29;20214;-69
2023/03/05 07:03:30;;;;;;;0.20;0.20;;;2.90;99.90;;;;;;4923045;29;20230;-70
2023/03/05 07:05:57;;;;;;;0.45;0.45;;;2.90;99.90;;;;;;4925915;29;20227;-69
2023/03/05 07:08:24;;;;;;;0.22;0.22;;;3.00;99.90;;;;;;4916013;29;20207;-69
2023/03/05 07:10:50;;;;;;;0.52;0.52;;;3.00;99.90;;;;;;4917175;29;20328;-70
2023/03/05 07:13:17;;;;;;;0.60;0.60;;;3.00;99.90;;;;;;4916616;29;20237;-69
2023/03/05 07:15:44;;;;;;;0.38;0.30;;;3.10;99.90;;;;;;4919847;29;20623;-69
2023/03/05 07:18:12;;;;;;;0.50;0.50;;;3.10;99.90;;;;;;4921256;29;20632;-69
2023/03/05 07:20:38;;;;;;;0.50;0.50;;;3.20;99.90;;;;;;4914638;29;20223;-68
2023/03/05 07:23:05;;;;;;;4.68;0.98;;;3.20;99.90;;;;;;4903781;29;20211;-70
2023/03/05 07:25:33;;;;;;;0.30;0.30;;;3.20;99.90;;;;;;4908780;29;20235;-68
2023/03/05 07:27:59;;;;;;;0.82;0.82;;;3.20;99.90;;;;;;4911588;29;20234;-67
2023/03/05 07:30:26;;;;;;;0.47;0.47;;;3.20;99.90;;;;;;4911049;29;20211;-68
2023/03/05 07:32:53;;;;;;;1.65;1.05;;;3.20;99.90;;;;;;4919016;29;20215;-69
2023/03/05 07:35:21;;;;;;;1.83;0.65;;;3.20;99.90;;;;;;4915487;29;20565;-70
2023/03/05 07:37:48;;;;;;;1.05;1.05;;;3.30;99.90;;;;;;4916021;29;20234;-70
2023/03/05 07:40:14;;;;;;;0.20;0.20;;;3.30;99.90;;;;;;4915841;29;20214;-70
2023/03/05 07:42:41;;;;;;;0.60;0.57;;;3.30;99.90;;;;;;4917493;29;20683;-70
2023/03/05 07:45:09;;;;;;;0.20;0.20;;;3.30;99.90;;;;;;4909872;29;20231;-70
2023/03/05 07:47:36;;;;;;;0.73;0.73;;;3.30;99.90;;;;;;4912706;29;20211;-68
2023/03/05 07:50:03;;;;;;;2.83;0.35;;;3.40;99.90;;;;;;4908523;29;20210;-69
2023/03/05 07:52:31;;;;;;;28.20;1.48;;;3.40;99.90;;;;;;4920292;29;20222;-70
2023/03/05 07:54:58;;;;;;;1.35;1.35;;;3.40;99.90;;;;;;4916469;29;20230;-70
2023/03/05 07:57:25;;;;;;;0.47;0.47;;;3.40;99.90;;;;;;4913930;29;20234;-70
2023/03/05 07:59:51;;;;;;;0.73;0.73;;;3.50;99.90;;;;;;4916844;29;20238;-70
2023/03/05 08:02:19;;;;;;;1.60;0.55;;;3.50;99.90;;;;;;4919244;29;20206;-69
2023/03/05 08:04:46;;;;;;;0.30;0.30;;;3.50;99.90;;;;;;4918768;29;20214;-70
2023/03/05 08:07:14;;;;;;;1.60;1.58;;;3.50;99.90;;;;;;4910685;29;20760;-70
2023/03/05 08:09:42;;;;;;;0.77;0.77;;;3.50;99.90;;;;;;4915299;29;20214;-69
2023/03/05 08:12:09;;;;;;;0.30;0.30;;;3.60;99.90;;;;;;4912753;29;20219;-69
2023/03/05 08:14:36;;;;;;;0.38;0.38;;;3.60;99.90;;;;;;4914914;29;20233;-68
2023/03/05 08:17:04;;;;;;;0.20;0.20;;;3.60;99.90;;;;;;4920165;29;20214;-69
2023/03/05 08:19:31;;;;;;;0.30;0.30;;;3.70;99.90;;;;;;4907533;29;20207;-69
2023/03/05 08:21:57;;;;;;;4.25;1.13;;;3.70;99.90;;;;;;4918820;29;20555;-69
2023/03/05 08:24:28;;;;;;;0.30;0.30;;;3.80;99.90;;;;;;4918418;29;20222;-69
2023/03/05 08:26:57;;;;;;;0.77;0.30;;;3.80;99.90;;;;;;4916445;29;20244;-69
2023/03/05 08:29:24;;;;;;;0.20;0.20;;;3.80;99.90;;;;;;4915251;29;20242;-69
2023/03/05 08:31:52;;;;;;;0.50;0.50;;;3.90;99.90;;;;;;4916411;29;20238;-69
2023/03/05 08:34:19;;;;;;;0.30;0.30;;;4.10;99.90;;;;;;4906704;29;20561;-69
2023/03/05 08:36:46;;;;;;;1.25;0.30;;;4.20;99.90;;;;;;4914186;29;20239;-69
2023/03/05 08:39:13;;;;;;;0.75;0.75;;;4.30;99.90;;;;;;4919164;29;20226;-69
2023/03/05 08:41:40;;;;;;;0.40;0.40;;;4.30;99.90;;;;;;4903857;29;20208;-69
2023/03/05 08:44:08;;;;;;;1.05;1.05;;;4.30;99.90;;;;;;4915316;29;20296;-70
2023/03/05 08:46:34;;;;;;;1.48;1.38;;;4.40;99.90;;;;;;4912479;29;20261;-69
2023/03/05 08:49:01;;;;;;;0.38;0.38;;;4.40;99.90;;;;;;4907455;29;20218;-70
2023/03/05 08:51:28;;;;;;;1.33;0.82;;;4.40;99.90;;;;;;4908051;29;20215;-70
2023/03/05 08:53:57;;;;;;;1.02;1.02;;;4.50;99.90;;;;;;4915571;29;20206;-69
2023/03/05 08:56:26;;;;;;;0.90;0.90;;;4.50;99.90;;;;;;4915312;29;20586;-70
2023/03/05 08:58:53;;;;;;;6.93;0.73;;;4.60;99.90;;;;;;4913290;29;20429;-70
2023/03/05 09:01:21;;;;;;;0.40;0.40;;;4.60;99.90;;;;;;4915717;29;20218;-69
2023/03/05 09:03:48;;;;;;;0.25;0.20;;;4.60;99.90;;;;;;4910930;29;20297;-69
2023/03/05 09:06:14;;;;;;;0.38;0.38;;;4.60;99.90;;;;;;4913895;29;20571;-68
2023/03/05 09:08:41;;;;;;;1.15;0.65;;;4.80;99.90;;;;;;4918165;29;20201;-69
2023/03/05 09:11:11;;;;;;;0.20;0.20;;;4.90;99.90;;;;;;4919438;29;20215;-69
2023/03/05 09:13:38;;;;;;;0.82;0.82;;;5.00;99.90;;;;;;4913457;29;20671;-70
2023/03/05 09:16:06;;;;;;;0.35;0.35;;;5.00;99.90;;;;;;4914248;29;20242;-70
2023/03/05 09:18:35;;;;;;;1.05;1.05;;;5.10;99.90;;;;;;4907136;29;20230;-70
2023/03/05 09:21:05;;;;;;;0.47;0.47;;;5.10;99.90;;;;;;4915666;29;20221;-70
2023/03/05 09:23:32;;;;;;;1.73;1.52;;;5.00;99.90;;;;;;4915898;29;20211;-69
2023/03/05 09:25:58;;;;;;;1.02;1.02;;;5.00;99.90;;;;;;4915035;29;20320;-70
2023/03/05 09:28:25;;;;;;;0.80;0.80;;;4.90;99.90;;;;;;4914908;29;20211;-70
2023/03/05 09:30:52;;;;;;;13.68;1.52;;;5.00;99.90;;;;;;4915239;29;20214;-70
2023/03/05 09:33:18;;;;;;;1.02;1.00;;;5.00;99.90;;;;;;4912866;29;20215;-70
2023/03/05 09:35:47;;;;;;;2.70;0.90;;;5.10;99.90;;;;;;4900660;29;20290;-70
2023/03/05 09:38:14;;;;;;;1.00;1.00;;;5.20;99.90;;;;;;4895720;29;20231;-70
2023/03/05 09:40:48;;;;;;;0.50;0.50;;;5.30;99.90;;;;;;4895677;29;20222;-70
2023/03/05 09:43:26;;;;;;;0.40;0.40;;;5.30;99.90;;;;;;4895353;29;20226;-70
2023/03/05 09:46:13;;;;;;;0.38;0.38;;;5.20;99.90;;;;;;4898858;29;20234;-70
2023/03/05 09:48:51;;;;;;;0.88;0.88;;;5.20;99.90;;;;;;4912974;29;20206;-70
2023/03/05 09:51:24;;;;;;;1.05;1.05;;;5.20;99.90;;;;;;4907737;29;20681;-69
2023/03/05 09:53:57;;;;;;;0.88;0.45;;;5.30;99.90;;;;;;4899186;29;20648;-69
2023/03/05 09:56:28;;;;;;;1.35;0.88;;;5.50;99.90;;;;;;4899676;29;20263;-69
2023/03/05 09:58:59;;;;;;;0.60;0.60;;;5.60;99.90;;;;;;4900884;29;20238;-71
2023/03/05 10:01:34;;;;;;;0.70;0.70;;;5.70;99.90;;;;;;4900145;29;20215;-70
2023/03/05 10:04:06;;;;;;;0.95;0.95;;;5.70;99.90;;;;;;4899382;29;20246;-69
2023/03/05 10:06:36;;;;;;;3.67;0.73;;;5.80;99.90;;;;;;4911630;29;20722;-69
2023/03/05 10:09:12;;;;;;;0.77;0.77;;;5.70;99.90;;;;;;4909572;29;20211;-70
2023/03/05 10:11:47;;;;;;;1.02;0.90;;;5.70;99.90;;;;;;4899579;29;20214;-69
2023/03/05 10:14:22;;;;;;;5.30;0.95;;;5.70;99.90;;;;;;4898405;29;20582;-69
2023/03/05 10:17:33;;;;;;;0.55;0.32;;;5.80;99.90;;;;;;4899217;29;20237;-69
2023/03/05 10:20:23;;;;;;;0.60;0.52;;;5.70;99.90;;;;;;4899090;29;20214;-69
2023/03/05 10:23:03;;;;;;;0.57;0.57;;;5.70;99.90;;;;;;4906287;29;20298;-69
2023/03/05 10:25:49;;;;;;;1.77;0.93;;;5.80;99.90;;;;;;4910517;29;20273;-70
2023/03/05 10:28:21;;;;;;;0.80;0.80;;;5.80;99.90;;;;;;4917413;29;20211;-69
2023/03/05 10:31:02;;;;;;;0.50;0.50;;;5.90;99.90;;;;;;4917611;29;20211;-70
2023/03/05 10:33:39;;;;;;;0.20;0.20;;;5.80;99.90;;;;;;4915330;29;20210;-70
2023/03/05 10:36:25;;;;;;;0.20;0.20;;;5.70;99.90;;;;;;4900079;29;20238;-70
2023/03/05 10:39:13;;;;;;;0.85;0.85;;;5.60;99.90;;;;;;4901022;29;20238;-70
2023/03/05 10:41:53;;;;;;;0.73;0.30;;;5.50;99.90;;;;;;4917695;29;20207;-70
2023/03/05 10:44:29;;;;;;;0.63;0.63;;;5.50;99.90;;;;;;4916514;29;20221;-70
2023/03/05 10:46:58;;;;;;;0.30;0.30;;;5.50;99.90;;;;;;4911577;29;20716;-70
2023/03/05 10:49:29;;;;;;;0.30;0.30;;;5.50;99.90;;;;;;4917062;29;20210;-70
2023/03/05 10:52:03;;;;;;;0.22;0.22;;;5.50;99.90;;;;;;4917419;29;20557;-70
2023/03/05 10:54:34;;;;;;;0.20;0.20;;;5.60;99.90;;;;;;4916544;29;20213;-70
2023/03/05 10:57:13;;;;;;;0.40;0.40;;;5.40;99.90;;;;;;4916041;29;20215;-70
2023/03/05 10:59:44;;;;;;;2.50;0.47;;;5.30;99.90;;;;;;4916710;29;20226;-70
2023/03/05 11:02:10;;;;;;;0.45;0.45;;;5.30;99.90;;;;;;4917438;29;20218;-70
2023/03/05 11:04:40;;;;;;;0.38;0.35;;;5.30;99.90;;;;;;4916302;29;20687;-70
2023/03/05 11:07:28;;;;;;;0.30;0.30;;;5.20;99.90;;;;;;4917352;29;20211;-70
2023/03/05 11:10:17;;;;;;;1.00;0.47;;;5.10;99.90;;;;;;4916853;29;20668;-69
2023/03/05 11:12:45;;;;;;;1.27;0.25;;;5.00;99.90;;;;;;4915724;29;20672;-70
2023/03/05 11:15:29;;;;;;;0.80;0.80;;;5.00;99.90;;;;;;4898691;29;20266;-70
2023/03/05 11:18:23;;;;;;;0.68;0.30;;;5.00;99.90;;;;;;4898899;29;20736;-69
2023/03/05 11:20:50;;;;;;;0.30;0.30;;;5.00;99.90;;;;;;4875308;29;20310;-69
2023/03/05 11:23:18;;;;;;;0.30;0.30;;;5.00;99.90;;;;;;4897288;29;20215;-68
2023/03/05 11:26:18;;;;;;;0.63;0.63;;;5.10;99.90;;;;;;4897298;29;20239;-70
2023/03/05 11:28:57;;;;;;;0.32;0.32;;;5.20;99.90;;;;;;4907670;29;20214;-70
2023/03/05 11:31:26;;;;;;;0.40;0.40;;;5.20;99.90;;;;;;4909220;29;20207;-68
2023/03/05 11:33:59;;;;;;;0.28;0.28;;;5.00;99.90;;;;;;4915715;29;20671;-69
2023/03/05 11:36:28;;;;;;;0.40;0.40;;;4.70;99.90;;;;;;4914935;29;20626;-68
2023/03/05 11:38:58;;;;;;;0.25;0.25;;;4.70;99.90;;;;;;4908553;29;20227;-68
2023/03/05 11:41:34;;;;;;;0.20;0.20;;;4.70;99.90;;;;;;4896889;29;20211;-68
2023/03/05 11:44:04;;;;;;;0.68;0.50;;;4.70;99.90;;;;;;4897029;29;20653;-68
2023/03/05 11:46:42;;;;;;;0.30;0.30;;;4.70;99.90;;;;;;4906679;29;20227;-68
2023/03/05 11:49:15;;;;;;;0.52;0.52;;;4.70;99.90;;;;;;4897162;29;20211;-68
2023/03/05 11:51:45;;;;;;;0.65;0.65;;;4.60;99.90;;;;;;4897370;29;20254;-68
2023/03/05 11:54:16;;;;;;;0.20;0.20;;;4.70;99.90;;;;;;4896364;29;20219;-69
2023/03/05 11:56:46;;;;;;;1.02;0.95;;;4.70;99.90;;;;;;4897423;29;20231;-70
2023/03/05 11:59:17;;;;;;;0.63;0.63;;;4.80;99.90;;;;;;4896881;29;20602;-68
2023/03/05 12:01:46;;;;;;;0.52;0.52;;;4.80;99.90;;;;;;4903058;29;20229;-68
2023/03/05 12:04:13;;;;;;;0.45;0.45;;;4.80;99.90;;;;;;4912847;29;20213;-68
2023/03/05 12:06:44;;;;;;;0.10;0.10;;;4.80;99.90;;;;;;4899308;29;20274;-68
2023/03/05 12:09:18;;;;;;;0.90;0.90;;;4.90;99.90;;;;;;4913521;29;20214;-68
2023/03/05 12:11:50;;;;;;;0.30;0.30;;;5.00;99.90;;;;;;4897765;29;20653;-67
2023/03/05 12:14:24;;;;;;;1.05;0.82;;;5.00;99.90;;;;;;4896515;29;20218;-68
2023/03/05 12:16:57;;;;;;;0.30;0.30;;;5.10;99.90;;;;;;4897572;29;20256;-68
2023/03/05 12:19:39;;;;;;;0.55;0.55;;;5.10;99.90;;;;;;4906402;29;20253;-69
2023/03/05 12:22:15;;;;;;;0.50;0.50;;;5.10;99.90;;;;;;4913886;29;20349;-69
2023/03/05 12:24:42;;;;;;;0.30;0.30;;;5.00;99.90;;;;;;4907243;29;20214;-69
2023/03/05 12:27:15;;;;;;;0.40;0.40;;;5.00;99.90;;;;;;4914682;29;20661;-67
2023/03/05 12:29:48;;;;;;;0.35;0.35;;;4.80;99.90;;;;;;4914858;29;20214;-69
2023/03/05 12:32:58;;;;;;;0.80;0.80;;;4.60;99.90;;;;;;4915535;29;20593;-68
2023/03/05 12:35:28;;;;;;;0.73;0.73;;;4.50;99.90;;;;;;4912797;29;20681;-69
2023/03/05 12:38:01;;;;;;;0.93;0.93;;;4.50;99.90;;;;;;4911667;29;20211;-68
2023/03/05 12:40:29;;;;;;;0.40;0.40;;;4.40;99.90;;;;;;4896015;29;20227;-68
2023/03/05 12:43:00;;;;;;;0.45;0.45;;;4.40;99.90;;;;;;4896137;29;20215;-68
2023/03/05 12:45:29;;;;;;;0.60;0.60;;;4.40;99.90;;;;;;4895712;29;20238;-68
2023/03/05 12:48:34;;;;;;;0.82;0.82;;;4.40;99.90;;;;;;4914712;29;20233;-68
2023/03/05 12:51:01;;;;;;;0.45;0.45;;;4.50;99.90;;;;;;4915563;29;20206;-69
2023/03/05 12:53:27;;;;;;;0.50;0.50;;;4.70;99.90;;;;;;4908299;29;20222;-69
2023/03/05 12:55:59;;;;;;;0.40;0.30;;;4.90;99.90;;;;;;4899539;29;20552;-69
2023/03/05 12:58:35;;;;;;;0.85;0.85;;;5.00;99.90;;;;;;4910389;29;20326;-69
2023/03/05 13:01:07;;;;;;;0.38;0.38;;;5.00;99.90;;;;;;4900053;29;20217;-68
2023/03/05 13:03:36;;;;;;;0.35;0.35;;;5.10;99.90;;;;;;4914262;29;20301;-68
2023/03/05 13:06:05;;;;;;;0.28;0.28;;;5.10;99.90;;;;;;4914650;29;20234;-68
2023/03/05 13:08:34;;;;;;;0.20;0.20;;;5.20;99.90;;;;;;4910823;29;20687;-68
2023/03/05 13:11:03;;;;;;;0.30;0.20;;;5.30;99.90;;;;;;4911628;29;20213;-68
2023/03/05 13:13:35;;;;;;;0.30;0.30;;;5.30;99.90;;;;;;4914143;29;20219;-68
2023/03/05 13:16:03;;;;;;;0.35;0.35;;;5.30;99.90;;;;;;4914225;29;20320;-70
2023/03/05 13:18:32;;;;;;;2.95;0.35;;;5.30;99.90;;;;;;4915593;29;20234;-70
2023/03/05 13:21:04;;;;;;;0.10;0.10;;;5.40;99.90;;;;;;4915347;29;20632;-69
2023/03/05 13:23:31;;;;;;;0.10;0.10;;;5.40;99.90;;;;;;4914716;29;20653;-69
2023/03/05 13:26:01;;;;;;;0.10;0.10;;;5.40;99.90;;;;;;4919753;29;20226;-69
2023/03/05 13:28:28;;;;;;;0.30;0.25;;;5.40;99.90;;;;;;4913887;29;20330;-71
2023/03/05 13:30:58;;;;;;;4.40;0.30;;;5.40;99.90;;;;;;4919289;29;20206;-69
2023/03/05 13:33:30;;;;;;;1.65;0.75;;;5.30;99.90;;;;;;4915654;29;20210;-69
2023/03/05 13:35:56;;;;;;;0.73;0.73;;;5.30;99.90;;;;;;4909629;29;20718;-69
2023/03/05 13:38:28;;;;;;;0.20;0.20;;;5.20;99.90;;;;;;4914878;29;20206;-68
2023/03/05 13:41:03;;;;;;;0.35;0.35;;;5.20;99.90;;;;;;4912521;29;20230;-68
2023/03/05 13:43:30;;;;;;;1.63;1.52;;;5.10;99.90;;;;;;4914467;29;20249;-69
2023/03/05 13:45:58;;;;;;;0.40;0.40;;;5.10;99.90;;;;;;4914096;29;20727;-69
2023/03/05 13:48:27;;;;;;;4.60;2.42;;;5.10;99.90;;;;;;4904904;29;20214;-68
2023/03/05 13:50:55;;;;;;;1.85;0.40;;;5.10;99.90;;;;;;4916282;29;20207;-69
2023/03/05 13:53:24;;;;;;;0.70;0.70;;;5.20;99.90;;;;;;4907898;29;20671;-71
2023/03/05 13:55:52;;;;;;;0.40;0.40;;;5.30;99.90;;;;;;4915792;29;20230;-68
2023/03/05 13:58:43;;;;;;;0.30;0.30;;;5.30;99.90;;;;;;4908298;29;20609;-69
2023/03/05 14:01:14;;;;;;;1.27;1.02;;;5.30;99.90;;;;;;4912433;29;20218;-70
2023/03/05 14:03:41;;;;;;;0.30;0.30;;;5.30;99.90;;;;;;4910522;29;20573;-68
2023/03/05 14:06:10;;;;;;;0.68;0.68;;;5.30;99.90;;;;;;4914753;29;20234;-70
2023/03/05 14:08:37;;;;;;;0.93;0.90;;;5.30;99.90;;;;;;4916256;29;20206;-69
2023/03/05 14:11:13;;;;;;;5.57;1.45;;;5.40;99.90;;;;;;4914989;29;20211;-70
2023/03/05 14:13:40;;;;;;;1.75;1.13;;;5.40;99.90;;;;;;4925163;29;20301;-69
2023/03/05 14:16:09;;;;;;;0.60;0.60;;;5.50;99.90;;;;;;4909680;29;20242;-69
2023/03/05 14:18:38;;;;;;;0.10;0.10;;;5.50;99.90;;;;;;4911632;29;20246;-69
2023/03/05 14:21:07;;;;;;;0.10;0.10;;;5.50;99.90;;;;;;4914696;29;20230;-70
2023/03/05 14:23:41;;;;;;;4.00;0.40;;;5.60;99.90;;;;;;4914620;29;20721;-69
2023/03/05 14:26:24;;;;;;;0.20;0.20;;;5.70;99.90;;;;;;4913293;29;20251;-68
2023/03/05 14:28:53;;;;;;;0.50;0.20;;;5.70;99.90;;;;;;4912735;29;20580;-69
2023/03/05 14:31:21;;;;;;;0.68;0.68;;;5.70;99.90;;;;;;4898261;29;20223;-69
2023/03/05 14:33:51;;;;;;;0.50;0.40;;;5.70;99.90;;;;;;4920156;29;20206;-68
2023/03/05 14:36:23;;;;;;;0.20;0.20;;;5.70;99.90;;;;;;4918274;29;20249;-69
2023/03/05 14:38:51;;;;;;;0.20;0.20;;;5.70;99.90;;;;;;4919832;29;20645;-71
2023/03/05 14:41:30;;;;;;;0.10;0.10;;;5.70;99.90;;;;;;4918332;29;20218;-69
2023/03/05 14:43:57;;;;;;;0.20;0.20;;;5.70;99.90;;;;;;4921129;29;20597;-70
2023/03/05 14:46:24;;;;;;;0.30;0.30;;;5.70;99.90;;;;;;4908784;29;20238;-69
2023/03/05 14:48:53;;;;;;;0.28;0.28;;;5.60;99.90;;;;;;4914665;29;20210;-70
2023/03/05 14:51:20;;;;;;;0.10;0.10;;;5.60;99.90;;;;;;4925624;29;20206;-68
2023/03/05 14:53:49;;;;;;;0.40;0.40;;;5.60;99.90;;;;;;4917041;29;20222;-69
2023/03/05 14:56:22;;;;;;;0.20;0.20;;;5.60;99.90;;;;;;4909198;29;20274;-69
2023/03/05 14:58:48;;;;;;;0.30;0.30;;;5.60;99.90;;;;;;4927002;29;20624;-69
2023/03/05 15:01:15;;;;;;;0.38;0.38;;;5.60;99.90;;;;;;4916432;29;20230;-69
2023/03/05 15:03:42;;;;;;;0.40;0.40;;;5.60;99.90;;;;;;4929731;29;20210;-69
2023/03/05 15:06:18;;;;;;;0.20;0.20;;;5.60;99.90;;;;;;4919953;29;20237;-68
2023/03/05 15:08:44;;;;;;;0.30;0.30;;;5.60;99.90;;;;;;4928614;29;20225;-67
2023/03/05 15:11:11;;;;;;;0.20;0.20;;;5.50;99.90;;;;;;4917111;29;20203;-68
2023/03/05 15:13:38;;;;;;;0.43;0.40;;;5.50;99.90;;;;;;4915807;29;20207;-68
2023/03/05 15:16:06;;;;;;;0.43;0.43;;;5.50;99.90;;;;;;4924501;29;20265;-69
2023/03/05 15:18:33;;;;;;;2.95;0.50;;;5.50;99.90;;;;;;4919312;29;20303;-67
2023/03/05 15:21:01;;;;;;;1.30;0.63;;;5.50;99.90;;;;;;4915648;29;20257;-69
2023/03/05 15:23:34;;;;;;;0.20;0.20;;;5.50;99.90;;;;;;4913624;29;20307;-68
2023/03/05 15:26:05;;;;;;;0.20;0.20;;;5.50;99.90;;;;;;4908247;29;20239;-68
2023/03/05 15:28:33;;;;;;;0.20;0.20;;;5.40;99.90;;;;;;4918139;29;20290;-70
2023/03/05 15:31:00;;;;;;;9.88;1.52;;;5.40;99.90;;;;;;4908041;29;20211;-67
2023/03/05 15:33:26;;;;;;;0.20;0.20;;;5.40;99.90;;;;;;4916345;29;20203;-67
2023/03/05 15:35:53;;;;;;;0.20;0.20;;;5.40;99.90;;;;;;4909751;29;20237;-67
2023/03/05 15:38:20;;;;;;;0.30;0.30;;;5.30;99.90;;;;;;4913341;29;20215;-67
2023/03/05 15:40:49;;;;;;;0.30;0.30;;;5.30;99.90;;;;;;4906574;29;20223;-67
2023/03/05 15:43:16;;;;;;;0.20;0.20;;;5.30;99.90;;;;;;4912491;29;20202;-68
2023/03/05 15:45:43;;;;;;;0.82;0.40;;;5.30;99.90;;;;;;4917796;29;20231;-71
2023/03/05 15:48:09;;;;;;;1.33;0.60;;;5.30;99.90;;;;;;4916543;29;20214;-68
2023/03/05 15:50:36;;;;;;;0.40;0.40;;;5.30;99.90;;;;;;4906559;29;20215;-67
2023/03/05 15:53:03;;;;;;;0.20;0.20;;;5.30;99.90;;;;;;4912240;29;20237;-68
2023/03/05 15:55:29;;;;;;;0.63;0.50;;;5.30;99.90;;;;;;4916821;29;20984;-69
2023/03/05 15:57:57;;;;;;;0.10;0.10;;;5.30;99.90;;;;;;4908729;29;20210;-68
2023/03/05 16:00:28;;;;;;;0.50;0.50;;;5.30;99.90;;;;;;4913774;29;20234;-68
2023/03/05 16:02:55;;;;;;;0.52;0.30;;;5.30;99.90;;;;;;4922090;29;20237;-68
2023/03/05 16:05:23;;;;;;;4.72;1.58;;;5.30;99.90;;;;;;4915240;29;20230;-68
2023/03/05 16:07:51;;;;;;;0.75;0.50;;;5.30;99.90;;;;;;4915365;29;20219;-68
2023/03/05 16:10:22;;;;;;;1.85;0.55;;;5.20;99.90;;;;;;4920385;29;20218;-68
2023/03/05 16:12:54;;;;;;;0.80;0.80;;;5.20;99.90;;;;;;4932763;29;20286;-68
2023/03/05 16:15:22;;;;;;;0.30;0.30;;;5.20;99.90;;;;;;4922169;29;20692;-69
2023/03/05 16:17:53;;;;;;;0.50;0.35;;;5.10;99.90;;;;;;4911916;29;20218;-69
2023/03/05 16:20:20;;;;;;;0.20;0.20;;;5.00;99.90;;;;;;4921182;29;20310;-68
2023/03/05 16:22:48;;;;;;;0.20;0.20;;;5.00;99.90;;;;;;4921689;29;20218;-67
2023/03/05 16:25:14;;;;;;;1.55;0.80;;;5.00;99.90;;;;;;4912747;29;20282;-67
2023/03/05 16:27:41;;;;;;;1.45;0.95;;;4.90;99.90;;;;;;4929317;29;20218;-67
2023/03/05 16:30:09;;;;;;;1.58;0.60;;;4.90;99.90;;;;;;4929461;29;20210;-67
2023/03/05 16:32:38;;;;;;;0.30;0.30;;;4.90;99.90;;;;;;4907041;29;20763;-67
2023/03/05 16:35:06;;;;;;;0.20;0.20;;;4.80;99.90;;;;;;4905937;29;20334;-67
2023/03/05 16:37:32;;;;;;;0.20;0.20;;;4.70;99.90;;;;;;4912030;29;20213;-66
2023/03/05 16:39:59;;;;;;;0.30;0.30;;;4.70;99.90;;;;;;4914997;29;20229;-67
2023/03/05 16:42:26;;;;;;;0.40;0.40;;;4.60;99.90;;;;;;4908393;29;20699;-67
2023/03/05 16:44:53;;;;;;;0.60;0.35;;;4.60;99.90;;;;;;4914479;29;20218;-67
2023/03/05 16:47:19;;;;;;;0.73;0.40;;;4.60;99.90;;;;;;4908470;29;20203;-69
2023/03/05 16:49:47;;;;;;;0.15;0.15;;;4.60;99.90;;;;;;4914626;29;20217;-68
2023/03/05 16:52:14;;;;;;;0.50;0.50;;;4.60;99.90;;;;;;4921611;29;20214;-69
2023/03/05 16:54:41;;;;;;;0.20;0.20;;;4.50;99.90;;;;;;4920437;29;20687;-70
2023/03/05 16:57:08;;;;;;;0.20;0.20;;;4.50;99.90;;;;;;4920921;29;20206;-69
2023/03/05 16:59:35;;;;;;;2.47;2.38;;;4.40;99.90;;;;;;4914304;29;20269;-70
2023/03/05 17:02:02;;;;;;;0.68;0.68;;;4.40;99.90;;;;;;4915410;29;20669;-67
2023/03/05 17:04:29;;;;;;;0.20;0.20;;;4.40;99.90;;;;;;4913494;29;20207;-67
2023/03/05 17:06:57;;;;;;;0.75;0.75;;;4.40;99.90;;;;;;4901437;29;21772;-67
2023/03/05 17:09:23;;;;;;;0.82;0.82;;;4.30;99.90;;;;;;4914219;29;20284;-68
2023/03/05 17:11:50;;;;;;;0.52;0.52;;;4.20;99.90;;;;;;4920006;29;20202;-68
2023/03/05 17:14:17;;;;;;;0.20;0.20;;;4.20;99.90;;;;;;4911929;29;20653;-69
2023/03/05 17:16:44;;;;;;;0.68;0.68;;;4.10;99.90;;;;;;4919051;29;20827;-67
2023/03/05 17:19:11;;;;;;;1.45;1.35;;;4.10;99.90;;;;;;4907006;29;20211;-68
2023/03/05 17:21:38;;;;;;;0.77;0.77;;;4.10;99.90;;;;;;4911504;29;20870;-69
2023/03/05 17:24:07;;;;;;;0.28;0.28;;;4.10;99.90;;;;;;4914175;29;20564;-67
2023/03/05 17:26:35;;;;;;;0.20;0.20;;;4.00;99.90;;;;;;4909572;29;20618;-69
2023/03/05 17:29:02;;;;;;;0.40;0.30;;;4.00;99.90;;;;;;4914050;29;20207;-66
2023/03/05 17:31:28;;;;;;;0.50;0.50;;;4.00;99.90;;;;;;4914918;29;20783;-70
2023/03/05 17:33:56;;;;;;;0.17;0.17;;;3.90;99.90;;;;;;4915300;29;20208;-70
2023/03/05 17:36:23;;;;;;;1.17;1.17;;;3.90;99.90;;;;;;4918049;29;20223;-69
2023/03/05 17:38:51;;;;;;;3.60;0.52;;;3.90;99.90;;;;;;4913390;29;20210;-69
2023/03/05 17:41:19;;;;;;;0.32;0.32;;;3.90;99.90;;;;;;4913875;29;20732;-70
2023/03/05 17:43:46;;;;;;;0.30;0.30;;;3.80;99.90;;;;;;4914945;29;20214;-69
2023/03/05 17:46:13;;;;;;;0.93;0.93;;;3.80;99.90;;;;;;4914779;29;20230;-69
2023/03/05 17:48:40;;;;;;;0.63;0.63;;;3.70;99.90;;;;;;4911611;29;20234;-69
2023/03/05 17:51:08;;;;;;;2.75;2.10;;;3.70;99.90;;;;;;4914215;29;20202;-68
2023/03/05 17:53:37;;;;;;;0.60;0.60;;;3.70;99.90;;;;;;4899654;29;20221;-68
2023/03/05 17:56:07;;;;;;;1.23;1.23;;;3.70;99.90;;;;;;4915252;29;20313;-69
2023/03/05 17:58:35;;;;;;;3.03;2.33;;;3.70;99.90;;;;;;4918983;29;20279;-70
2023/03/05 18:01:03;;;;;;;4.22;1.45;;;3.70;99.90;;;;;;4920335;29;20234;-69
2023/03/05 18:03:29;;;;;;;1.65;0.75;;;3.60;99.90;;;;;;4913896;29;20238;-70
2023/03/05 18:05:56;;;;;;;1.17;1.17;;;3.60;99.90;;;;;;4921479;29;20405;-70
2023/03/05 18:08:23;;;;;;;1.80;1.80;;;3.60;99.90;;;;;;4921841;29;20214;-69
2023/03/05 18:10:50;;;;;;;1.60;1.60;;;3.60;99.90;;;;;;4924464;29;20221;-71
2023/03/05 18:13:16;;;;;;;0.60;0.60;;;3.60;99.90;;;;;;4924403;29;20211;-69